sensor_id;sensor_type;location;lat;lon;timestamp;P1;durP1;ratioP1;P2;durP2;ratioP2
52530;SDS011;38441;52.894;6.040;2024-02-16T00:00:01;6.80;;;2.67;;
52530;SDS011;38441;52.894;6.040;2024-02-16T00:02:27;5.95;;;2.75;;
52530;SDS011;38441;52.894;6.040;2024-02-16T00:04:54;6.35;;;2.75;;
52530;SDS011;38441;52.894;6.040;2024-02-16T00:10:14;7.47;;;2.80;;
52530;SDS011;38441;52.894;6.040;2024-02-16T00:12:43;6.28;;;2.60;;
52530;SDS011;38441;52.894;6.040;2024-02-16T00:15:09;13.80;;;2.67;;
52530;SDS011;38441;52.894;6.040;2024-02-16T00:17:36;8.27;;;2.75;;
52530;SDS011;38441;52.894;6.040;2024-02-16T00:20:02;7.88;;;3.13;;
52530;SDS011;38441;52.894;6.040;2024-02-16T00:22:28;6.20;;;2.60;;
52530;SDS011;38441;52.894;6.040;2024-02-16T00:24:55;6.72;;;2.42;;
52530;SDS011;38441;52.894;6.040;2024-02-16T00:27:20;7.03;;;2.40;;
52530;SDS011;38441;52.894;6.040;2024-02-16T00:29:46;8.10;;;2.53;;
52530;SDS011;38441;52.894;6.040;2024-02-16T00:32:12;4.72;;;2.42;;
52530;SDS011;38441;52.894;6.040;2024-02-16T00:34:38;6.53;;;2.38;;
52530;SDS011;38441;52.894;6.040;2024-02-16T00:37:04;6.90;;;2.45;;
52530;SDS011;38441;52.894;6.040;2024-02-16T00:39:34;5.40;;;2.05;;
52530;SDS011;38441;52.894;6.040;2024-02-16T00:42:06;4.82;;;2.28;;
52530;SDS011;38441;52.894;6.040;2024-02-16T00:44:31;6.03;;;2.55;;
52530;SDS011;38441;52.894;6.040;2024-02-16T00:46:57;7.95;;;2.20;;
52530;SDS011;38441;52.894;6.040;2024-02-16T00:49:23;7.13;;;2.53;;
52530;SDS011;38441;52.894;6.040;2024-02-16T00:51:49;4.53;;;2.30;;
52530;SDS011;38441;52.894;6.040;2024-02-16T00:54:15;6.05;;;2.60;;
52530;SDS011;38441;52.894;6.040;2024-02-16T00:56:42;4.15;;;2.28;;
52530;SDS011;38441;52.894;6.040;2024-02-16T00:59:07;4.65;;;2.20;;
52530;SDS011;38441;52.894;6.040;2024-02-16T01:01:34;4.30;;;2.05;;
52530;SDS011;38441;52.894;6.040;2024-02-16T01:04:01;5.32;;;2.45;;
52530;SDS011;38441;52.894;6.040;2024-02-16T01:06:27;4.97;;;2.30;;
52530;SDS011;38441;52.894;6.040;2024-02-16T01:08:53;5.10;;;2.22;;
52530;SDS011;38441;52.894;6.040;2024-02-16T01:11:19;5.22;;;2.40;;
52530;SDS011;38441;52.894;6.040;2024-02-16T01:13:47;5.88;;;2.10;;
52530;SDS011;38441;52.894;6.040;2024-02-16T01:16:13;5.70;;;2.13;;
52530;SDS011;38441;52.894;6.040;2024-02-16T01:18:40;5.57;;;2.25;;
52530;SDS011;38441;52.894;6.040;2024-02-16T01:21:05;7.10;;;2.55;;
52530;SDS011;38441;52.894;6.040;2024-02-16T01:23:31;6.05;;;2.38;;
52530;SDS011;38441;52.894;6.040;2024-02-16T01:25:57;6.47;;;1.95;;
52530;SDS011;38441;52.894;6.040;2024-02-16T01:28:23;4.38;;;1.77;;
52530;SDS011;38441;52.894;6.040;2024-02-16T01:30:49;3.92;;;1.95;;
52530;SDS011;38441;52.894;6.040;2024-02-16T01:33:15;6.65;;;2.58;;
52530;SDS011;38441;52.894;6.040;2024-02-16T01:35:41;6.15;;;1.98;;
52530;SDS011;38441;52.894;6.040;2024-02-16T01:38:06;5.88;;;2.08;;
52530;SDS011;38441;52.894;6.040;2024-02-16T01:40:35;5.85;;;1.90;;
52530;SDS011;38441;52.894;6.040;2024-02-16T01:43:07;5.43;;;2.22;;
52530;SDS011;38441;52.894;6.040;2024-02-16T01:45:36;6.03;;;2.00;;
52530;SDS011;38441;52.894;6.040;2024-02-16T01:48:01;5.60;;;2.08;;
52530;SDS011;38441;52.894;6.040;2024-02-16T01:50:28;9.15;;;2.40;;
52530;SDS011;38441;52.894;6.040;2024-02-16T01:52:54;5.93;;;1.92;;
52530;SDS011;38441;52.894;6.040;2024-02-16T01:55:20;5.45;;;2.20;;
52530;SDS011;38441;52.894;6.040;2024-02-16T01:57:47;5.13;;;1.92;;
52530;SDS011;38441;52.894;6.040;2024-02-16T02:00:13;5.88;;;2.28;;
52530;SDS011;38441;52.894;6.040;2024-02-16T02:02:40;6.20;;;2.35;;
52530;SDS011;38441;52.894;6.040;2024-02-16T02:05:08;6.75;;;2.38;;
52530;SDS011;38441;52.894;6.040;2024-02-16T02:07:34;4.95;;;2.22;;
52530;SDS011;38441;52.894;6.040;2024-02-16T02:10:00;5.28;;;2.22;;
52530;SDS011;38441;52.894;6.040;2024-02-16T02:12:26;4.97;;;2.17;;
52530;SDS011;38441;52.894;6.040;2024-02-16T02:14:52;4.95;;;2.00;;
52530;SDS011;38441;52.894;6.040;2024-02-16T02:17:18;4.90;;;2.15;;
52530;SDS011;38441;52.894;6.040;2024-02-16T02:19:47;5.00;;;2.05;;
52530;SDS011;38441;52.894;6.040;2024-02-16T02:22:17;6.68;;;2.38;;
52530;SDS011;38441;52.894;6.040;2024-02-16T02:24:48;7.80;;;2.17;;
52530;SDS011;38441;52.894;6.040;2024-02-16T02:27:14;4.15;;;1.98;;
52530;SDS011;38441;52.894;6.040;2024-02-16T02:29:41;4.60;;;2.13;;
52530;SDS011;38441;52.894;6.040;2024-02-16T02:32:07;5.18;;;2.38;;
52530;SDS011;38441;52.894;6.040;2024-02-16T02:34:33;6.68;;;2.40;;
52530;SDS011;38441;52.894;6.040;2024-02-16T02:36:59;4.25;;;2.00;;
52530;SDS011;38441;52.894;6.040;2024-02-16T02:39:25;4.03;;;2.05;;
52530;SDS011;38441;52.894;6.040;2024-02-16T02:41:50;6.45;;;2.40;;
52530;SDS011;38441;52.894;6.040;2024-02-16T02:44:17;7.45;;;2.63;;
52530;SDS011;38441;52.894;6.040;2024-02-16T02:46:44;6.65;;;2.35;;
52530;SDS011;38441;52.894;6.040;2024-02-16T02:49:10;4.68;;;2.20;;
52530;SDS011;38441;52.894;6.040;2024-02-16T02:51:35;4.47;;;1.92;;
52530;SDS011;38441;52.894;6.040;2024-02-16T02:54:01;6.45;;;2.63;;
52530;SDS011;38441;52.894;6.040;2024-02-16T02:56:27;6.30;;;2.15;;
52530;SDS011;38441;52.894;6.040;2024-02-16T02:58:52;3.72;;;2.25;;
52530;SDS011;38441;52.894;6.040;2024-02-16T03:01:18;5.47;;;2.33;;
52530;SDS011;38441;52.894;6.040;2024-02-16T03:03:45;6.00;;;2.28;;
52530;SDS011;38441;52.894;6.040;2024-02-16T03:06:11;4.75;;;2.47;;
52530;SDS011;38441;52.894;6.040;2024-02-16T03:08:38;6.80;;;2.80;;
52530;SDS011;38441;52.894;6.040;2024-02-16T03:11:04;4.15;;;2.50;;
52530;SDS011;38441;52.894;6.040;2024-02-16T03:13:31;4.97;;;2.20;;
52530;SDS011;38441;52.894;6.040;2024-02-16T03:15:57;7.30;;;2.35;;
52530;SDS011;38441;52.894;6.040;2024-02-16T03:18:23;4.65;;;2.38;;
52530;SDS011;38441;52.894;6.040;2024-02-16T03:20:49;6.72;;;2.58;;
52530;SDS011;38441;52.894;6.040;2024-02-16T03:23:15;4.70;;;2.13;;
52530;SDS011;38441;52.894;6.040;2024-02-16T03:25:41;7.50;;;2.47;;
52530;SDS011;38441;52.894;6.040;2024-02-16T03:28:13;7.65;;;2.50;;
52530;SDS011;38441;52.894;6.040;2024-02-16T03:30:40;4.38;;;2.30;;
52530;SDS011;38441;52.894;6.040;2024-02-16T03:33:06;5.95;;;2.38;;
52530;SDS011;38441;52.894;6.040;2024-02-16T03:35:31;7.72;;;2.30;;
52530;SDS011;38441;52.894;6.040;2024-02-16T03:37:57;9.98;;;2.55;;
52530;SDS011;38441;52.894;6.040;2024-02-16T03:40:26;8.00;;;2.33;;
52530;SDS011;38441;52.894;6.040;2024-02-16T03:42:53;4.03;;;2.20;;
52530;SDS011;38441;52.894;6.040;2024-02-16T03:45:19;6.65;;;2.63;;
52530;SDS011;38441;52.894;6.040;2024-02-16T03:47:45;6.43;;;2.45;;
52530;SDS011;38441;52.894;6.040;2024-02-16T03:50:16;7.03;;;2.38;;
52530;SDS011;38441;52.894;6.040;2024-02-16T03:52:42;5.57;;;2.50;;
52530;SDS011;38441;52.894;6.040;2024-02-16T03:55:08;4.57;;;2.30;;
52530;SDS011;38441;52.894;6.040;2024-02-16T04:00:25;9.05;;;2.20;;
52530;SDS011;38441;52.894;6.040;2024-02-16T04:02:51;5.47;;;2.40;;
52530;SDS011;38441;52.894;6.040;2024-02-16T04:05:16;6.35;;;2.10;;
52530;SDS011;38441;52.894;6.040;2024-02-16T04:07:42;6.60;;;2.20;;
52530;SDS011;38441;52.894;6.040;2024-02-16T04:10:08;5.60;;;2.35;;
52530;SDS011;38441;52.894;6.040;2024-02-16T04:12:34;5.78;;;2.65;;
52530;SDS011;38441;52.894;6.040;2024-02-16T04:14:59;5.45;;;2.40;;
52530;SDS011;38441;52.894;6.040;2024-02-16T04:17:25;5.70;;;2.35;;
52530;SDS011;38441;52.894;6.040;2024-02-16T04:19:51;5.07;;;2.47;;
52530;SDS011;38441;52.894;6.040;2024-02-16T04:22:16;6.60;;;2.83;;
52530;SDS011;38441;52.894;6.040;2024-02-16T04:24:42;4.70;;;2.08;;
52530;SDS011;38441;52.894;6.040;2024-02-16T04:27:08;6.85;;;2.45;;
52530;SDS011;38441;52.894;6.040;2024-02-16T04:29:33;6.45;;;2.17;;
52530;SDS011;38441;52.894;6.040;2024-02-16T04:31:59;5.68;;;2.30;;
52530;SDS011;38441;52.894;6.040;2024-02-16T04:34:24;6.97;;;2.70;;
52530;SDS011;38441;52.894;6.040;2024-02-16T04:36:50;7.25;;;2.63;;
52530;SDS011;38441;52.894;6.040;2024-02-16T04:39:16;5.82;;;2.40;;
52530;SDS011;38441;52.894;6.040;2024-02-16T04:41:42;5.47;;;2.20;;
52530;SDS011;38441;52.894;6.040;2024-02-16T04:44:08;6.20;;;2.17;;
52530;SDS011;38441;52.894;6.040;2024-02-16T04:46:33;5.45;;;2.35;;
52530;SDS011;38441;52.894;6.040;2024-02-16T04:48:59;7.20;;;2.40;;
52530;SDS011;38441;52.894;6.040;2024-02-16T04:51:24;7.80;;;2.45;;
52530;SDS011;38441;52.894;6.040;2024-02-16T04:53:50;5.97;;;2.20;;
52530;SDS011;38441;52.894;6.040;2024-02-16T04:56:16;5.40;;;2.60;;
52530;SDS011;38441;52.894;6.040;2024-02-16T04:58:42;6.03;;;2.53;;
52530;SDS011;38441;52.894;6.040;2024-02-16T05:01:08;6.53;;;2.47;;
52530;SDS011;38441;52.894;6.040;2024-02-16T05:03:33;5.68;;;2.63;;
52530;SDS011;38441;52.894;6.040;2024-02-16T05:06:02;5.57;;;2.08;;
52530;SDS011;38441;52.894;6.040;2024-02-16T05:08:28;5.10;;;2.35;;
52530;SDS011;38441;52.894;6.040;2024-02-16T05:10:54;6.07;;;2.70;;
52530;SDS011;38441;52.894;6.040;2024-02-16T05:13:19;5.05;;;2.22;;
52530;SDS011;38441;52.894;6.040;2024-02-16T05:15:45;8.10;;;3.00;;
52530;SDS011;38441;52.894;6.040;2024-02-16T05:18:13;9.10;;;2.78;;
52530;SDS011;38441;52.894;6.040;2024-02-16T05:20:39;6.90;;;2.60;;
52530;SDS011;38441;52.894;6.040;2024-02-16T05:23:05;5.03;;;2.15;;
52530;SDS011;38441;52.894;6.040;2024-02-16T05:25:31;4.43;;;2.30;;
52530;SDS011;38441;52.894;6.040;2024-02-16T05:27:57;4.05;;;2.08;;
52530;SDS011;38441;52.894;6.040;2024-02-16T05:30:25;6.95;;;2.25;;
52530;SDS011;38441;52.894;6.040;2024-02-16T05:32:51;8.07;;;2.50;;
52530;SDS011;38441;52.894;6.040;2024-02-16T05:35:18;4.45;;;1.95;;
52530;SDS011;38441;52.894;6.040;2024-02-16T05:37:44;5.82;;;2.58;;
52530;SDS011;38441;52.894;6.040;2024-02-16T05:40:16;7.53;;;2.10;;
52530;SDS011;38441;52.894;6.040;2024-02-16T05:42:51;5.25;;;2.28;;
52530;SDS011;38441;52.894;6.040;2024-02-16T05:45:18;7.60;;;2.50;;
52530;SDS011;38441;52.894;6.040;2024-02-16T05:47:44;5.30;;;2.40;;
52530;SDS011;38441;52.894;6.040;2024-02-16T05:50:14;5.60;;;2.67;;
52530;SDS011;38441;52.894;6.040;2024-02-16T05:52:40;4.70;;;2.38;;
52530;SDS011;38441;52.894;6.040;2024-02-16T05:55:10;6.40;;;2.10;;
52530;SDS011;38441;52.894;6.040;2024-02-16T05:57:37;6.88;;;2.13;;
52530;SDS011;38441;52.894;6.040;2024-02-16T06:00:06;5.20;;;2.28;;
52530;SDS011;38441;52.894;6.040;2024-02-16T06:02:33;5.65;;;2.35;;
52530;SDS011;38441;52.894;6.040;2024-02-16T06:05:00;5.45;;;2.65;;
52530;SDS011;38441;52.894;6.040;2024-02-16T06:07:26;4.65;;;2.22;;
52530;SDS011;38441;52.894;6.040;2024-02-16T06:09:51;5.15;;;2.33;;
52530;SDS011;38441;52.894;6.040;2024-02-16T06:12:20;7.15;;;2.65;;
52530;SDS011;38441;52.894;6.040;2024-02-16T06:14:46;5.28;;;2.38;;
52530;SDS011;38441;52.894;6.040;2024-02-16T06:17:13;5.38;;;2.20;;
52530;SDS011;38441;52.894;6.040;2024-02-16T06:19:40;6.75;;;2.67;;
52530;SDS011;38441;52.894;6.040;2024-02-16T06:22:09;4.28;;;2.20;;
52530;SDS011;38441;52.894;6.040;2024-02-16T06:24:35;4.57;;;2.30;;
52530;SDS011;38441;52.894;6.040;2024-02-16T06:27:01;6.82;;;2.28;;
52530;SDS011;38441;52.894;6.040;2024-02-16T06:29:28;6.22;;;2.13;;
52530;SDS011;38441;52.894;6.040;2024-02-16T06:31:55;7.68;;;2.63;;
52530;SDS011;38441;52.894;6.040;2024-02-16T06:34:21;6.70;;;2.38;;
52530;SDS011;38441;52.894;6.040;2024-02-16T06:36:46;5.18;;;2.20;;
52530;SDS011;38441;52.894;6.040;2024-02-16T06:39:16;6.00;;;2.38;;
52530;SDS011;38441;52.894;6.040;2024-02-16T06:41:49;5.82;;;2.83;;
52530;SDS011;38441;52.894;6.040;2024-02-16T06:44:15;4.82;;;2.83;;
52530;SDS011;38441;52.894;6.040;2024-02-16T06:46:41;5.50;;;2.70;;
52530;SDS011;38441;52.894;6.040;2024-02-16T06:49:08;5.43;;;2.53;;
52530;SDS011;38441;52.894;6.040;2024-02-16T06:51:33;5.97;;;2.42;;
52530;SDS011;38441;52.894;6.040;2024-02-16T06:53:59;7.10;;;3.13;;
52530;SDS011;38441;52.894;6.040;2024-02-16T06:56:25;5.80;;;2.60;;
52530;SDS011;38441;52.894;6.040;2024-02-16T06:58:51;5.50;;;2.55;;
52530;SDS011;38441;52.894;6.040;2024-02-16T07:01:17;6.13;;;2.38;;
52530;SDS011;38441;52.894;6.040;2024-02-16T07:03:45;7.15;;;2.88;;
52530;SDS011;38441;52.894;6.040;2024-02-16T07:06:11;6.45;;;2.17;;
52530;SDS011;38441;52.894;6.040;2024-02-16T07:08:42;4.25;;;2.38;;
52530;SDS011;38441;52.894;6.040;2024-02-16T07:11:08;5.72;;;2.63;;
52530;SDS011;38441;52.894;6.040;2024-02-16T07:13:38;5.60;;;2.78;;
52530;SDS011;38441;52.894;6.040;2024-02-16T07:16:07;5.95;;;2.47;;
52530;SDS011;38441;52.894;6.040;2024-02-16T07:18:33;7.57;;;2.53;;
52530;SDS011;38441;52.894;6.040;2024-02-16T07:20:59;5.22;;;2.70;;
52530;SDS011;38441;52.894;6.040;2024-02-16T07:23:25;6.53;;;2.65;;
52530;SDS011;38441;52.894;6.040;2024-02-16T07:25:51;6.72;;;2.83;;
52530;SDS011;38441;52.894;6.040;2024-02-16T07:28:20;6.53;;;2.53;;
52530;SDS011;38441;52.894;6.040;2024-02-16T07:30:46;7.72;;;3.00;;
52530;SDS011;38441;52.894;6.040;2024-02-16T07:33:12;9.18;;;2.92;;
52530;SDS011;38441;52.894;6.040;2024-02-16T07:35:38;6.50;;;3.08;;
52530;SDS011;38441;52.894;6.040;2024-02-16T07:38:04;5.97;;;2.58;;
52530;SDS011;38441;52.894;6.040;2024-02-16T07:40:30;5.32;;;2.83;;
52530;SDS011;38441;52.894;6.040;2024-02-16T07:42:56;5.43;;;3.08;;
52530;SDS011;38441;52.894;6.040;2024-02-16T07:45:22;5.25;;;2.65;;
52530;SDS011;38441;52.894;6.040;2024-02-16T07:47:47;7.65;;;2.90;;
52530;SDS011;38441;52.894;6.040;2024-02-16T07:50:13;5.78;;;3.00;;
52530;SDS011;38441;52.894;6.040;2024-02-16T07:52:43;3.72;;;2.45;;
52530;SDS011;38441;52.894;6.040;2024-02-16T07:55:08;5.53;;;2.63;;
52530;SDS011;38441;52.894;6.040;2024-02-16T07:57:34;4.30;;;2.67;;
52530;SDS011;38441;52.894;6.040;2024-02-16T08:00:01;6.00;;;2.92;;
52530;SDS011;38441;52.894;6.040;2024-02-16T08:02:28;6.43;;;2.78;;
52530;SDS011;38441;52.894;6.040;2024-02-16T08:04:54;5.80;;;3.15;;
52530;SDS011;38441;52.894;6.040;2024-02-16T08:07:20;4.85;;;2.78;;
52530;SDS011;38441;52.894;6.040;2024-02-16T08:09:46;6.30;;;3.10;;
52530;SDS011;38441;52.894;6.040;2024-02-16T08:12:12;6.53;;;2.90;;
52530;SDS011;38441;52.894;6.040;2024-02-16T08:14:39;6.53;;;3.10;;
52530;SDS011;38441;52.894;6.040;2024-02-16T08:17:05;7.20;;;3.08;;
52530;SDS011;38441;52.894;6.040;2024-02-16T08:19:32;5.85;;;3.03;;
52530;SDS011;38441;52.894;6.040;2024-02-16T08:21:59;5.20;;;3.10;;
52530;SDS011;38441;52.894;6.040;2024-02-16T08:24:26;7.75;;;3.33;;
52530;SDS011;38441;52.894;6.040;2024-02-16T08:26:51;5.85;;;3.13;;
52530;SDS011;38441;52.894;6.040;2024-02-16T08:29:20;5.18;;;2.90;;
52530;SDS011;38441;52.894;6.040;2024-02-16T08:31:49;7.60;;;3.30;;
52530;SDS011;38441;52.894;6.040;2024-02-16T08:34:16;5.53;;;3.20;;
52530;SDS011;38441;52.894;6.040;2024-02-16T08:36:46;5.57;;;2.92;;
52530;SDS011;38441;52.894;6.040;2024-02-16T08:39:12;5.68;;;3.35;;
52530;SDS011;38441;52.894;6.040;2024-02-16T08:41:38;7.68;;;3.15;;
52530;SDS011;38441;52.894;6.040;2024-02-16T08:44:05;6.93;;;2.92;;
52530;SDS011;38441;52.894;6.040;2024-02-16T08:46:34;7.20;;;3.33;;
52530;SDS011;38441;52.894;6.040;2024-02-16T08:49:01;6.68;;;3.60;;
52530;SDS011;38441;52.894;6.040;2024-02-16T08:54:26;5.90;;;3.30;;
52530;SDS011;38441;52.894;6.040;2024-02-16T08:56:55;6.68;;;3.55;;
52530;SDS011;38441;52.894;6.040;2024-02-16T08:59:21;4.80;;;3.08;;
52530;SDS011;38441;52.894;6.040;2024-02-16T09:01:47;5.95;;;3.00;;
52530;SDS011;38441;52.894;6.040;2024-02-16T09:04:13;5.65;;;3.20;;
52530;SDS011;38441;52.894;6.040;2024-02-16T09:06:38;8.10;;;3.80;;
52530;SDS011;38441;52.894;6.040;2024-02-16T09:09:04;6.40;;;3.20;;
52530;SDS011;38441;52.894;6.040;2024-02-16T09:11:32;6.45;;;3.55;;
52530;SDS011;38441;52.894;6.040;2024-02-16T09:14:08;7.90;;;3.53;;
52530;SDS011;38441;52.894;6.040;2024-02-16T09:16:33;6.78;;;3.58;;
52530;SDS011;38441;52.894;6.040;2024-02-16T09:18:59;5.95;;;3.60;;
52530;SDS011;38441;52.894;6.040;2024-02-16T09:21:25;9.43;;;4.00;;
52530;SDS011;38441;52.894;6.040;2024-02-16T09:23:53;7.63;;;3.60;;
52530;SDS011;38441;52.894;6.040;2024-02-16T09:26:19;7.43;;;4.20;;
52530;SDS011;38441;52.894;6.040;2024-02-16T09:28:45;6.80;;;3.58;;
52530;SDS011;38441;52.894;6.040;2024-02-16T09:31:14;8.55;;;3.75;;
52530;SDS011;38441;52.894;6.040;2024-02-16T09:33:40;11.30;;;5.60;;
52530;SDS011;38441;52.894;6.040;2024-02-16T09:36:09;15.18;;;6.47;;
52530;SDS011;38441;52.894;6.040;2024-02-16T09:38:35;15.55;;;7.45;;
52530;SDS011;38441;52.894;6.040;2024-02-16T09:41:01;14.43;;;8.07;;
52530;SDS011;38441;52.894;6.040;2024-02-16T09:43:29;12.73;;;7.38;;
52530;SDS011;38441;52.894;6.040;2024-02-16T09:45:55;8.73;;;5.03;;
52530;SDS011;38441;52.894;6.040;2024-02-16T09:48:22;10.18;;;5.25;;
52530;SDS011;38441;52.894;6.040;2024-02-16T09:50:50;8.32;;;4.82;;
52530;SDS011;38441;52.894;6.040;2024-02-16T09:53:17;9.68;;;4.70;;
52530;SDS011;38441;52.894;6.040;2024-02-16T09:55:46;10.02;;;4.45;;
52530;SDS011;38441;52.894;6.040;2024-02-16T09:58:14;11.00;;;4.78;;
52530;SDS011;38441;52.894;6.040;2024-02-16T10:00:47;6.53;;;3.85;;
52530;SDS011;38441;52.894;6.040;2024-02-16T10:03:29;9.95;;;4.03;;
52530;SDS011;38441;52.894;6.040;2024-02-16T10:06:07;8.07;;;4.25;;
52530;SDS011;38441;52.894;6.040;2024-02-16T10:08:35;9.80;;;4.93;;
52530;SDS011;38441;52.894;6.040;2024-02-16T10:11:14;7.90;;;4.63;;
52530;SDS011;38441;52.894;6.040;2024-02-16T10:13:40;9.63;;;5.03;;
52530;SDS011;38441;52.894;6.040;2024-02-16T10:16:07;8.77;;;4.82;;
52530;SDS011;38441;52.894;6.040;2024-02-16T10:18:37;7.97;;;4.72;;
52530;SDS011;38441;52.894;6.040;2024-02-16T10:21:06;8.75;;;4.70;;
52530;SDS011;38441;52.894;6.040;2024-02-16T10:23:33;11.55;;;5.32;;
52530;SDS011;38441;52.894;6.040;2024-02-16T10:25:59;12.15;;;5.32;;
52530;SDS011;38441;52.894;6.040;2024-02-16T10:28:25;8.55;;;5.93;;
52530;SDS011;38441;52.894;6.040;2024-02-16T10:30:57;8.07;;;5.30;;
52530;SDS011;38441;52.894;6.040;2024-02-16T10:33:30;11.15;;;5.70;;
52530;SDS011;38441;52.894;6.040;2024-02-16T10:35:57;8.38;;;5.13;;
52530;SDS011;38441;52.894;6.040;2024-02-16T10:38:24;8.07;;;5.22;;
52530;SDS011;38441;52.894;6.040;2024-02-16T10:40:52;10.60;;;6.20;;
52530;SDS011;38441;52.894;6.040;2024-02-16T10:43:19;13.65;;;6.05;;
52530;SDS011;38441;52.894;6.040;2024-02-16T10:45:46;10.30;;;5.88;;
52530;SDS011;38441;52.894;6.040;2024-02-16T10:48:14;14.45;;;6.22;;
52530;SDS011;38441;52.894;6.040;2024-02-16T10:50:40;12.63;;;6.70;;
52530;SDS011;38441;52.894;6.040;2024-02-16T10:53:11;13.07;;;6.93;;
52530;SDS011;38441;52.894;6.040;2024-02-16T10:55:43;11.65;;;6.45;;
52530;SDS011;38441;52.894;6.040;2024-02-16T10:58:10;14.40;;;7.15;;
52530;SDS011;38441;52.894;6.040;2024-02-16T11:00:47;13.02;;;7.32;;
52530;SDS011;38441;52.894;6.040;2024-02-16T11:03:17;14.98;;;7.10;;
52530;SDS011;38441;52.894;6.040;2024-02-16T11:05:48;13.30;;;7.47;;
52530;SDS011;38441;52.894;6.040;2024-02-16T11:08:15;16.15;;;8.02;;
52530;SDS011;38441;52.894;6.040;2024-02-16T11:11:01;17.77;;;8.55;;
52530;SDS011;38441;52.894;6.040;2024-02-16T11:13:33;18.92;;;10.63;;
52530;SDS011;38441;52.894;6.040;2024-02-16T11:16:02;24.17;;;12.93;;
52530;SDS011;38441;52.894;6.040;2024-02-16T11:18:32;16.03;;;8.90;;
52530;SDS011;38441;52.894;6.040;2024-02-16T11:21:02;15.20;;;8.70;;
52530;SDS011;38441;52.894;6.040;2024-02-16T11:23:29;16.67;;;9.52;;
52530;SDS011;38441;52.894;6.040;2024-02-16T11:26:03;17.35;;;8.40;;
52530;SDS011;38441;52.894;6.040;2024-02-16T11:28:33;13.48;;;6.93;;
52530;SDS011;38441;52.894;6.040;2024-02-16T11:31:00;13.30;;;6.35;;
52530;SDS011;38441;52.894;6.040;2024-02-16T11:33:26;12.40;;;6.68;;
52530;SDS011;38441;52.894;6.040;2024-02-16T11:35:58;13.18;;;6.53;;
52530;SDS011;38441;52.894;6.040;2024-02-16T11:38:32;13.75;;;5.57;;
52530;SDS011;38441;52.894;6.040;2024-02-16T11:43:25;10.35;;;5.65;;
52530;SDS011;38441;52.894;6.040;2024-02-16T11:45:51;9.55;;;5.32;;
52530;SDS011;38441;52.894;6.040;2024-02-16T11:48:21;11.65;;;5.53;;
52530;SDS011;38441;52.894;6.040;2024-02-16T11:50:49;11.45;;;5.60;;
52530;SDS011;38441;52.894;6.040;2024-02-16T11:53:24;10.15;;;5.15;;
52530;SDS011;38441;52.894;6.040;2024-02-16T11:55:50;10.93;;;5.50;;
52530;SDS011;38441;52.894;6.040;2024-02-16T11:58:16;9.88;;;4.97;;
52530;SDS011;38441;52.894;6.040;2024-02-16T12:00:49;8.93;;;5.03;;
52530;SDS011;38441;52.894;6.040;2024-02-16T12:03:19;10.27;;;4.90;;
52530;SDS011;38441;52.894;6.040;2024-02-16T12:05:50;9.60;;;4.50;;
52530;SDS011;38441;52.894;6.040;2024-02-16T12:08:21;9.57;;;4.43;;
52530;SDS011;38441;52.894;6.040;2024-02-16T12:10:48;7.18;;;3.63;;
52530;SDS011;38441;52.894;6.040;2024-02-16T12:13:16;5.38;;;3.25;;
52530;SDS011;38441;52.894;6.040;2024-02-16T12:15:45;5.22;;;3.00;;
52530;SDS011;38441;52.894;6.040;2024-02-16T12:18:21;7.45;;;3.05;;
52530;SDS011;38441;52.894;6.040;2024-02-16T12:21:01;5.95;;;3.10;;
52530;SDS011;38441;52.894;6.040;2024-02-16T12:23:31;7.53;;;3.55;;
52530;SDS011;38441;52.894;6.040;2024-02-16T12:25:58;8.80;;;3.58;;
52530;SDS011;38441;52.894;6.040;2024-02-16T12:28:26;5.80;;;3.45;;
52530;SDS011;38441;52.894;6.040;2024-02-16T12:30:54;5.05;;;3.10;;
52530;SDS011;38441;52.894;6.040;2024-02-16T12:33:23;7.15;;;3.30;;
52530;SDS011;38441;52.894;6.040;2024-02-16T12:35:49;5.15;;;2.42;;
52530;SDS011;38441;52.894;6.040;2024-02-16T12:38:15;6.40;;;2.72;;
52530;SDS011;38441;52.894;6.040;2024-02-16T12:40:47;6.28;;;2.60;;
52530;SDS011;38441;52.894;6.040;2024-02-16T12:43:16;6.82;;;3.38;;
52530;SDS011;38441;52.894;6.040;2024-02-16T12:45:41;5.25;;;2.60;;
52530;SDS011;38441;52.894;6.040;2024-02-16T12:48:07;4.97;;;3.28;;
52530;SDS011;38441;52.894;6.040;2024-02-16T12:50:35;7.30;;;2.80;;
52530;SDS011;38441;52.894;6.040;2024-02-16T12:53:02;5.40;;;2.72;;
52530;SDS011;38441;52.894;6.040;2024-02-16T12:55:28;5.28;;;2.45;;
52530;SDS011;38441;52.894;6.040;2024-02-16T12:57:55;4.20;;;2.72;;
52530;SDS011;38441;52.894;6.040;2024-02-16T13:00:21;4.53;;;2.00;;
52530;SDS011;38441;52.894;6.040;2024-02-16T13:02:47;3.60;;;1.88;;
52530;SDS011;38441;52.894;6.040;2024-02-16T13:05:13;4.80;;;2.08;;
52530;SDS011;38441;52.894;6.040;2024-02-16T13:07:39;3.92;;;1.98;;
52530;SDS011;38441;52.894;6.040;2024-02-16T13:10:06;4.80;;;1.77;;
52530;SDS011;38441;52.894;6.040;2024-02-16T13:12:33;2.63;;;1.55;;
52530;SDS011;38441;52.894;6.040;2024-02-16T13:14:59;3.30;;;1.48;;
52530;SDS011;38441;52.894;6.040;2024-02-16T13:17:27;3.47;;;1.85;;
52530;SDS011;38441;52.894;6.040;2024-02-16T13:19:52;4.40;;;1.70;;
52530;SDS011;38441;52.894;6.040;2024-02-16T13:22:18;2.97;;;1.50;;
52530;SDS011;38441;52.894;6.040;2024-02-16T13:24:44;3.67;;;1.67;;
52530;SDS011;38441;52.894;6.040;2024-02-16T13:27:09;4.55;;;1.40;;
52530;SDS011;38441;52.894;6.040;2024-02-16T13:29:35;2.63;;;1.40;;
52530;SDS011;38441;52.894;6.040;2024-02-16T13:32:01;2.60;;;1.40;;
52530;SDS011;38441;52.894;6.040;2024-02-16T13:34:28;5.07;;;1.25;;
52530;SDS011;38441;52.894;6.040;2024-02-16T13:36:56;3.58;;;1.42;;
52530;SDS011;38441;52.894;6.040;2024-02-16T13:39:22;4.18;;;1.50;;
52530;SDS011;38441;52.894;6.040;2024-02-16T13:41:48;3.92;;;2.22;;
52530;SDS011;38441;52.894;6.040;2024-02-16T13:44:16;5.00;;;2.22;;
52530;SDS011;38441;52.894;6.040;2024-02-16T13:46:42;5.38;;;1.98;;
52530;SDS011;38441;52.894;6.040;2024-02-16T13:49:12;6.68;;;2.50;;
52530;SDS011;38441;52.894;6.040;2024-02-16T13:51:39;5.57;;;2.45;;
52530;SDS011;38441;52.894;6.040;2024-02-16T13:54:05;4.93;;;2.58;;
52530;SDS011;38441;52.894;6.040;2024-02-16T13:56:30;9.63;;;3.40;;
52530;SDS011;38441;52.894;6.040;2024-02-16T13:58:56;6.78;;;3.60;;
52530;SDS011;38441;52.894;6.040;2024-02-16T14:01:22;7.97;;;3.38;;
52530;SDS011;38441;52.894;6.040;2024-02-16T14:03:49;8.60;;;3.83;;
52530;SDS011;38441;52.894;6.040;2024-02-16T14:06:16;9.32;;;3.83;;
52530;SDS011;38441;52.894;6.040;2024-02-16T14:08:42;9.90;;;4.10;;
52530;SDS011;38441;52.894;6.040;2024-02-16T14:11:07;10.80;;;4.28;;
52530;SDS011;38441;52.894;6.040;2024-02-16T14:13:34;11.48;;;4.20;;
52530;SDS011;38441;52.894;6.040;2024-02-16T14:16:00;13.23;;;4.65;;
52530;SDS011;38441;52.894;6.040;2024-02-16T14:18:26;7.95;;;3.95;;
52530;SDS011;38441;52.894;6.040;2024-02-16T14:20:51;12.05;;;4.03;;
52530;SDS011;38441;52.894;6.040;2024-02-16T14:23:17;11.23;;;4.20;;
52530;SDS011;38441;52.894;6.040;2024-02-16T14:25:43;8.93;;;4.13;;
52530;SDS011;38441;52.894;6.040;2024-02-16T14:28:08;11.90;;;3.70;;
52530;SDS011;38441;52.894;6.040;2024-02-16T14:30:34;8.80;;;3.90;;
52530;SDS011;38441;52.894;6.040;2024-02-16T14:33:00;9.88;;;3.83;;
52530;SDS011;38441;52.894;6.040;2024-02-16T14:35:26;10.32;;;4.22;;
52530;SDS011;38441;52.894;6.040;2024-02-16T14:37:51;9.27;;;4.35;;
52530;SDS011;38441;52.894;6.040;2024-02-16T14:40:17;9.85;;;3.72;;
52530;SDS011;38441;52.894;6.040;2024-02-16T14:42:43;10.45;;;3.85;;
52530;SDS011;38441;52.894;6.040;2024-02-16T14:45:09;11.20;;;3.88;;
52530;SDS011;38441;52.894;6.040;2024-02-16T14:47:43;7.68;;;3.30;;
52530;SDS011;38441;52.894;6.040;2024-02-16T14:50:10;8.85;;;3.92;;
52530;SDS011;38441;52.894;6.040;2024-02-16T14:52:37;9.40;;;4.47;;
52530;SDS011;38441;52.894;6.040;2024-02-16T14:55:06;9.77;;;4.22;;